Time;durP1;ratioP1;P1;durP2;ratioP2;P2;SDS_P1;SDS_P2;PMS_P1;PMS_P2;Temp;Humidity;BMP_temperature;BMP_pressure;BME280_temperature;BME280_humidity;BME280_pressure;Samples;Min_cycle;Max_cycle;Signal;HPM_P1;HPM_P2
2021/09/23 00:00:04;;;;;;;71.47;43.28;;;10.10;99.90;;;;;;4156795;28;20122;-73
2021/09/23 00:02:14;;;;;;;73.35;45.80;;;10.10;99.90;;;;;;4159565;28;20041;-73
2021/09/23 00:06:15;;;;;;;63.88;42.40;;;10.10;99.90;;;;;;4160226;28;20042;-72
2021/09/23 00:08:16;;;;;;;61.03;40.60;;;10.10;99.90;;;;;;4159481;28;20045;-72
2021/09/23 00:10:20;;;;;;;60.33;40.25;;;10.20;99.90;;;;;;4161111;28;20037;-73
2021/09/23 00:12:21;;;;;;;67.20;43.50;;;10.20;99.90;;;;;;4161109;28;20500;-75
2021/09/23 00:14:22;;;;;;;64.60;42.47;;;10.10;99.90;;;;;;4162186;28;20040;-73
2021/09/23 00:16:22;;;;;;;61.63;40.40;;;10.10;99.90;;;;;;4160828;28;20373;-73
2021/09/23 00:18:28;;;;;;;59.75;40.15;;;10.10;99.90;;;;;;4160140;28;20389;-73
2021/09/23 00:20:34;;;;;;;63.38;39.08;;;10.10;99.90;;;;;;4160796;28;20032;-73
2021/09/23 00:22:35;;;;;;;56.58;40.20;;;10.10;99.90;;;;;;4155035;28;20029;-73
2021/09/23 00:24:36;;;;;;;63.47;40.65;;;10.10;99.90;;;;;;4158607;28;20380;-73
2021/09/23 00:26:37;;;;;;;62.33;41.58;;;10.10;99.90;;;;;;4157658;28;20049;-73
2021/09/23 00:28:38;;;;;;;63.95;42.05;;;10.10;99.90;;;;;;4162031;28;20407;-74
2021/09/23 00:30:39;;;;;;;59.60;39.95;;;10.20;99.90;;;;;;4159337;28;20037;-73
2021/09/23 00:32:40;;;;;;;66.53;40.80;;;10.20;99.90;;;;;;4158311;28;20092;-73
2021/09/23 00:34:40;;;;;;;61.25;41.30;;;10.30;99.90;;;;;;4161695;28;20033;-72
2021/09/23 00:36:41;;;;;;;52.90;37.25;;;10.30;99.90;;;;;;4155875;28;20389;-73
2021/09/23 00:38:42;;;;;;;58.08;40.78;;;10.30;99.90;;;;;;4157491;28;20041;-73
2021/09/23 00:40:42;;;;;;;55.25;38.17;;;10.30;99.90;;;;;;4159581;28;20040;-74
2021/09/23 00:42:44;;;;;;;56.60;39.08;;;10.30;99.90;;;;;;4161029;28;20033;-74
2021/09/23 00:44:55;;;;;;;61.13;40.05;;;10.30;99.90;;;;;;4161018;28;20107;-74
2021/09/23 00:46:56;;;;;;;59.28;39.90;;;10.30;99.90;;;;;;4131557;28;20490;-74
2021/09/23 00:48:56;;;;;;;55.10;38.80;;;10.30;99.90;;;;;;4119326;28;20045;-74
2021/09/23 00:50:58;;;;;;;63.22;39.33;;;10.40;99.90;;;;;;4120551;28;20122;-74
2021/09/23 00:52:59;;;;;;;57.63;39.03;;;10.50;99.90;;;;;;4119635;28;20084;-73
2021/09/23 00:55:00;;;;;;;54.95;37.95;;;10.50;99.90;;;;;;4119760;28;20069;-73
2021/09/23 00:57:01;;;;;;;56.33;37.45;;;10.50;99.90;;;;;;4119211;28;20406;-73
2021/09/23 00:59:01;;;;;;;53.90;37.25;;;10.70;99.90;;;;;;4125918;28;20026;-73
2021/09/23 01:01:02;;;;;;;52.63;37.17;;;10.90;99.90;;;;;;4122716;28;20081;-73
2021/09/23 01:03:04;;;;;;;50.25;35.92;;;10.80;99.90;;;;;;4119658;28;20038;-73
2021/09/23 01:05:05;;;;;;;52.22;35.53;;;10.80;99.90;;;;;;4119211;28;20035;-73
2021/09/23 01:07:06;;;;;;;50.92;34.50;;;10.80;99.90;;;;;;4118927;28;20061;-73
2021/09/23 01:09:06;;;;;;;47.85;34.45;;;10.80;99.90;;;;;;4118076;28;20038;-74
2021/09/23 01:11:07;;;;;;;47.50;31.38;;;10.80;99.90;;;;;;4117400;28;20433;-74
2021/09/23 01:13:08;;;;;;;52.15;33.47;;;10.80;99.90;;;;;;4132698;28;20547;-73
2021/09/23 01:15:09;;;;;;;48.47;35.40;;;10.90;99.90;;;;;;4140519;28;20041;-73
2021/09/23 01:17:10;;;;;;;49.90;32.33;;;10.90;99.90;;;;;;4144037;28;20050;-74
2021/09/23 01:19:11;;;;;;;46.22;32.38;;;10.90;99.90;;;;;;4141236;28;20029;-73
2021/09/23 01:21:12;;;;;;;49.80;33.35;;;10.90;99.90;;;;;;4129811;28;20502;-73
2021/09/23 01:23:13;;;;;;;51.22;34.33;;;10.90;99.90;;;;;;4142537;28;20046;-73
2021/09/23 01:25:17;;;;;;;51.75;32.25;;;10.90;99.90;;;;;;4143875;28;20030;-74
2021/09/23 01:27:17;;;;;;;51.63;35.15;;;10.80;99.90;;;;;;4142446;28;20514;-73
2021/09/23 01:29:18;;;;;;;47.28;34.03;;;10.90;99.90;;;;;;4139865;28;20090;-73
2021/09/23 01:31:20;;;;;;;49.45;34.28;;;10.90;99.90;;;;;;4127113;28;20038;-73
2021/09/23 01:33:21;;;;;;;46.97;32.22;;;10.90;99.90;;;;;;4119231;28;20041;-73
2021/09/23 01:35:22;;;;;;;44.92;31.85;;;10.90;99.90;;;;;;4120711;28;20053;-73
2021/09/23 01:37:23;;;;;;;46.83;31.52;;;10.90;99.90;;;;;;4119183;28;20070;-73
2021/09/23 01:39:27;;;;;;;44.22;33.00;;;10.90;99.90;;;;;;4117629;28;20061;-73
2021/09/23 01:41:28;;;;;;;42.17;31.23;;;11.00;99.90;;;;;;4119422;28;20061;-73
2021/09/23 01:43:28;;;;;;;46.22;34.35;;;10.90;99.90;;;;;;4120230;28;20043;-73
2021/09/23 01:45:29;;;;;;;50.20;32.72;;;10.90;99.90;;;;;;4128782;28;20043;-74
2021/09/23 01:47:29;;;;;;;51.95;32.55;;;10.90;99.90;;;;;;4173603;28;20041;-73
2021/09/23 01:49:30;;;;;;;42.60;33.92;;;11.00;99.90;;;;;;4180658;28;20098;-73
2021/09/23 01:51:31;;;;;;;47.50;33.50;;;11.00;99.90;;;;;;4177580;28;20036;-74
2021/09/23 01:53:32;;;;;;;45.42;32.05;;;10.90;99.90;;;;;;4177205;28;20040;-73
2021/09/23 01:55:33;;;;;;;44.42;31.90;;;10.80;99.90;;;;;;4179072;28;21057;-73
2021/09/23 01:57:33;;;;;;;47.00;35.28;;;10.80;99.90;;;;;;4180119;28;20053;-73
2021/09/23 01:59:34;;;;;;;46.80;32.10;;;10.70;99.90;;;;;;4180658;28;20039;-73
2021/09/23 02:01:35;;;;;;;49.83;33.92;;;10.70;99.90;;;;;;4180853;28;20055;-73
2021/09/23 02:03:35;;;;;;;53.53;33.85;;;10.70;99.90;;;;;;4173965;28;20063;-74
2021/09/23 02:05:37;;;;;;;43.40;32.47;;;10.60;99.90;;;;;;4172807;28;20076;-74
2021/09/23 02:07:38;;;;;;;47.75;30.95;;;10.50;99.90;;;;;;4164059;28;20073;-74
2021/09/23 02:09:39;;;;;;;47.45;31.88;;;10.50;99.90;;;;;;4180693;28;20072;-73
2021/09/23 02:11:40;;;;;;;49.70;32.30;;;10.60;99.90;;;;;;4178744;28;20384;-73
2021/09/23 02:13:41;;;;;;;50.25;32.63;;;10.70;99.90;;;;;;4177480;28;20029;-74
2021/09/23 02:15:41;;;;;;;51.55;31.65;;;10.70;99.90;;;;;;4181625;28;20036;-75
2021/09/23 02:17:44;;;;;;;48.17;34.03;;;10.80;99.90;;;;;;4179703;28;20059;-74
2021/09/23 02:19:44;;;;;;;42.83;30.08;;;10.80;99.90;;;;;;4179376;28;20033;-74
2021/09/23 02:21:45;;;;;;;46.25;30.50;;;10.80;99.90;;;;;;4179257;28;20064;-74
2021/09/23 02:23:45;;;;;;;50.35;30.75;;;10.70;99.90;;;;;;4176313;28;20136;-74
2021/09/23 02:25:46;;;;;;;45.45;30.98;;;10.70;99.90;;;;;;4177014;28;20119;-73
2021/09/23 02:27:46;;;;;;;48.60;31.27;;;10.90;99.90;;;;;;4179074;28;20127;-73
2021/09/23 02:29:47;;;;;;;44.35;30.17;;;10.90;99.90;;;;;;4179300;28;20043;-73
2021/09/23 02:31:48;;;;;;;41.85;29.02;;;10.90;99.90;;;;;;4178055;28;20562;-74
2021/09/23 02:33:49;;;;;;;42.95;27.40;;;11.00;99.90;;;;;;4166447;28;20037;-73
2021/09/23 02:35:49;;;;;;;44.60;29.65;;;11.00;99.90;;;;;;4171361;28;20143;-74
2021/09/23 02:37:50;;;;;;;42.00;29.98;;;11.10;99.90;;;;;;4176711;28;20118;-73
2021/09/23 02:39:51;;;;;;;36.45;26.60;;;11.10;99.90;;;;;;4179787;28;20044;-74
2021/09/23 02:41:52;;;;;;;47.03;28.38;;;11.10;99.90;;;;;;4176377;28;20040;-73
2021/09/23 02:43:53;;;;;;;42.83;28.70;;;11.10;99.90;;;;;;4177287;28;20040;-73
2021/09/23 02:45:53;;;;;;;37.83;27.45;;;11.10;99.90;;;;;;4176102;28;20051;-73
2021/09/23 02:47:54;;;;;;;40.63;28.95;;;11.10;99.90;;;;;;4178603;28;20033;-73
2021/09/23 02:49:54;;;;;;;40.53;28.25;;;11.10;99.90;;;;;;4177919;28;20128;-73
2021/09/23 02:51:55;;;;;;;39.58;29.75;;;11.10;99.90;;;;;;4178664;28;20125;-73
2021/09/23 02:53:56;;;;;;;41.10;28.35;;;11.10;99.90;;;;;;4178455;28;20045;-73
2021/09/23 02:55:56;;;;;;;39.40;29.05;;;11.10;99.90;;;;;;4177220;28;20037;-74
2021/09/23 02:57:57;;;;;;;39.08;28.73;;;11.30;99.90;;;;;;4177635;28;20041;-73
2021/09/23 02:59:58;;;;;;;40.58;27.77;;;11.20;99.90;;;;;;4176983;28;20541;-74
2021/09/23 03:01:59;;;;;;;41.08;29.98;;;11.30;99.90;;;;;;4178434;28;20588;-73
2021/09/23 03:03:59;;;;;;;40.95;29.85;;;11.20;99.90;;;;;;4175051;28;20500;-73
2021/09/23 03:06:00;;;;;;;47.78;30.10;;;11.10;99.90;;;;;;4179772;28;20360;-73
2021/09/23 03:08:00;;;;;;;41.22;28.73;;;11.10;99.90;;;;;;4174184;28;20037;-74
2021/09/23 03:10:01;;;;;;;47.78;31.90;;;11.00;99.90;;;;;;4175882;28;20049;-74
2021/09/23 03:12:02;;;;;;;43.85;29.73;;;10.90;99.90;;;;;;4174824;28;20045;-74
2021/09/23 03:14:03;;;;;;;46.33;31.60;;;10.90;99.90;;;;;;4208128;28;20120;-73
2021/09/23 03:16:04;;;;;;;51.53;32.97;;;10.90;99.90;;;;;;4175963;28;20041;-74
2021/09/23 03:18:05;;;;;;;49.03;32.92;;;11.00;99.90;;;;;;4176133;28;20055;-73
2021/09/23 03:20:06;;;;;;;44.55;31.40;;;11.00;99.90;;;;;;4175991;28;20037;-74
2021/09/23 03:22:07;;;;;;;47.97;32.28;;;11.00;99.90;;;;;;4176708;28;20086;-74
2021/09/23 03:24:08;;;;;;;43.47;31.75;;;11.00;99.90;;;;;;4176619;28;20045;-72
2021/09/23 03:26:09;;;;;;;45.13;31.50;;;11.10;99.90;;;;;;4177377;28;20048;-73
2021/09/23 03:28:10;;;;;;;41.78;31.40;;;11.20;99.90;;;;;;4177031;28;20028;-72
2021/09/23 03:30:12;;;;;;;45.42;31.13;;;11.30;99.90;;;;;;4174106;28;20583;-73
2021/09/23 03:32:12;;;;;;;44.00;29.75;;;11.20;99.90;;;;;;4174383;28;20060;-73
2021/09/23 03:34:13;;;;;;;48.88;32.17;;;11.20;99.90;;;;;;4166456;28;20029;-73
2021/09/23 03:36:14;;;;;;;43.00;31.25;;;11.20;99.90;;;;;;4176549;28;20071;-73
2021/09/23 03:38:15;;;;;;;47.58;31.42;;;11.20;99.90;;;;;;4176131;28;20036;-73
2021/09/23 03:40:16;;;;;;;43.50;29.55;;;11.20;99.90;;;;;;4176428;28;20558;-73
2021/09/23 03:42:17;;;;;;;45.53;29.95;;;11.20;99.90;;;;;;4175769;28;20057;-73
2021/09/23 03:44:17;;;;;;;43.70;31.40;;;11.30;99.90;;;;;;4174545;28;20437;-73
2021/09/23 03:46:18;;;;;;;40.88;29.40;;;11.30;99.90;;;;;;4176726;28;20036;-74
2021/09/23 03:48:22;;;;;;;42.58;30.83;;;11.30;99.90;;;;;;4176176;28;20033;-73
2021/09/23 03:50:23;;;;;;;41.78;30.15;;;11.30;99.90;;;;;;4177552;28;20396;-73
2021/09/23 03:52:24;;;;;;;42.78;30.50;;;11.30;99.90;;;;;;4175132;28;20036;-73
2021/09/23 03:54:24;;;;;;;43.55;31.25;;;11.20;99.90;;;;;;4177418;28;20071;-74
2021/09/23 03:56:25;;;;;;;50.08;32.20;;;11.10;99.90;;;;;;4175825;28;20033;-73
2021/09/23 03:58:26;;;;;;;45.03;32.95;;;11.10;99.90;;;;;;4174676;28;20051;-73
2021/09/23 04:00:27;;;;;;;49.30;32.13;;;11.10;99.90;;;;;;4174234;28;20036;-73
2021/09/23 04:02:27;;;;;;;52.45;33.40;;;11.00;99.90;;;;;;4177866;28;20021;-73
2021/09/23 04:04:28;;;;;;;43.30;31.02;;;11.00;99.90;;;;;;4174014;28;20037;-74
2021/09/23 04:06:29;;;;;;;44.85;33.65;;;11.10;99.90;;;;;;4178589;28;20544;-73
2021/09/23 04:08:29;;;;;;;50.08;34.95;;;11.10;99.90;;;;;;4175663;28;20024;-73
2021/09/23 04:10:31;;;;;;;55.72;35.08;;;11.00;99.90;;;;;;4174195;28;20024;-73
2021/09/23 04:12:31;;;;;;;49.55;33.63;;;10.90;99.90;;;;;;4175919;28;20040;-74
2021/09/23 04:14:32;;;;;;;49.55;34.28;;;10.90;99.90;;;;;;4177131;28;20111;-74
2021/09/23 04:16:33;;;;;;;54.95;35.95;;;10.90;99.90;;;;;;4176853;28;20518;-73
2021/09/23 04:18:34;;;;;;;53.25;35.50;;;10.80;99.90;;;;;;4175857;28;20032;-74
2021/09/23 04:20:35;;;;;;;46.95;33.30;;;10.80;99.90;;;;;;4176926;28;20033;-74
2021/09/23 04:22:36;;;;;;;46.03;35.53;;;10.80;99.90;;;;;;4174155;28;20033;-73
2021/09/23 04:24:37;;;;;;;50.22;34.13;;;10.80;99.90;;;;;;4175974;28;20056;-73
2021/09/23 04:26:37;;;;;;;48.72;37.40;;;10.80;99.90;;;;;;4163839;28;20036;-73
2021/09/23 04:28:38;;;;;;;59.28;38.95;;;10.80;99.90;;;;;;4158914;28;20053;-72
2021/09/23 04:30:39;;;;;;;49.70;36.30;;;10.80;99.90;;;;;;4156766;28;20032;-74
2021/09/23 04:32:39;;;;;;;50.13;35.72;;;10.70;99.90;;;;;;4160355;28;20509;-73
2021/09/23 04:34:40;;;;;;;48.65;36.75;;;10.70;99.90;;;;;;4157253;28;20381;-73
2021/09/23 04:36:41;;;;;;;55.10;37.10;;;10.60;99.90;;;;;;4159129;28;20110;-74
2021/09/23 04:38:42;;;;;;;57.55;39.35;;;10.60;99.90;;;;;;4154720;28;20022;-73
2021/09/23 04:40:42;;;;;;;54.42;38.03;;;10.60;99.90;;;;;;4156420;28;20399;-74
2021/09/23 04:42:43;;;;;;;59.20;39.67;;;10.70;99.90;;;;;;4157266;28;20036;-73
2021/09/23 04:44:44;;;;;;;50.92;37.42;;;10.80;99.90;;;;;;4157592;28;20087;-73
2021/09/23 04:46:44;;;;;;;51.72;37.17;;;10.90;99.90;;;;;;4158339;28;20037;-73
2021/09/23 04:48:45;;;;;;;61.45;40.10;;;10.80;99.90;;;;;;4158111;28;20029;-74
2021/09/23 04:50:46;;;;;;;52.83;40.35;;;10.80;99.90;;;;;;4159293;28;20036;-73
2021/09/23 04:52:47;;;;;;;59.35;38.13;;;10.90;99.90;;;;;;4156625;28;20115;-73
2021/09/23 04:54:47;;;;;;;55.72;39.10;;;11.00;99.90;;;;;;4159605;28;20034;-74
2021/09/23 04:56:48;;;;;;;61.55;40.67;;;11.00;99.90;;;;;;4157336;28;20060;-73
2021/09/23 04:58:49;;;;;;;60.78;38.63;;;11.10;99.90;;;;;;4159501;28;20025;-74
2021/09/23 05:00:49;;;;;;;60.22;40.95;;;11.10;99.90;;;;;;4159299;28;20459;-73
2021/09/23 05:02:50;;;;;;;58.70;41.13;;;11.20;99.90;;;;;;4158989;28;20113;-73
2021/09/23 05:04:50;;;;;;;56.08;38.13;;;11.20;99.90;;;;;;4158125;28;20033;-73
2021/09/23 05:06:53;;;;;;;62.35;41.22;;;11.20;99.90;;;;;;4156722;28;20046;-73
2021/09/23 05:08:53;;;;;;;53.90;38.77;;;11.30;99.90;;;;;;4157660;28;20045;-73
2021/09/23 05:10:54;;;;;;;51.10;38.80;;;11.30;99.90;;;;;;4155908;28;20280;-73
2021/09/23 05:12:54;;;;;;;50.75;35.90;;;11.30;99.90;;;;;;4159166;28;20551;-73
2021/09/23 05:14:55;;;;;;;61.67;40.88;;;11.40;99.90;;;;;;4156117;28;20067;-73
2021/09/23 05:16:56;;;;;;;58.72;42.08;;;11.40;99.90;;;;;;4159555;28;20457;-72
2021/09/23 05:18:58;;;;;;;60.58;42.50;;;11.40;99.90;;;;;;4153500;28;20053;-74
2021/09/23 05:20:59;;;;;;;61.93;42.90;;;11.40;99.90;;;;;;4155266;28;20048;-72
2021/09/23 05:23:00;;;;;;;57.55;40.15;;;11.40;99.90;;;;;;4151927;28;20025;-74
2021/09/23 05:25:01;;;;;;;65.63;44.83;;;11.30;99.90;;;;;;4160185;28;20035;-73
2021/09/23 05:27:01;;;;;;;62.67;44.65;;;11.30;99.90;;;;;;4166303;28;20076;-73
2021/09/23 05:29:02;;;;;;;66.28;44.45;;;11.20;99.90;;;;;;4177932;28;20056;-73
2021/09/23 05:31:04;;;;;;;70.28;45.33;;;11.20;99.90;;;;;;4177115;28;20097;-73
2021/09/23 05:33:05;;;;;;;59.10;41.67;;;11.20;99.90;;;;;;4175319;28;20048;-73
2021/09/23 05:35:08;;;;;;;56.40;39.83;;;11.40;99.90;;;;;;4176660;28;20036;-72
2021/09/23 05:37:09;;;;;;;60.17;41.28;;;11.40;99.90;;;;;;4155963;28;20065;-73
2021/09/23 05:39:09;;;;;;;64.18;43.22;;;11.50;99.90;;;;;;4158225;28;20034;-74
2021/09/23 05:41:10;;;;;;;62.30;44.10;;;11.50;99.90;;;;;;4159316;28;20036;-74
2021/09/23 05:43:10;;;;;;;60.72;43.92;;;11.50;99.90;;;;;;4159042;28;20152;-74
2021/09/23 05:45:12;;;;;;;64.15;44.97;;;11.50;99.90;;;;;;4176471;28;20055;-73
2021/09/23 05:47:13;;;;;;;63.80;44.55;;;11.50;99.90;;;;;;4180095;28;20036;-73
2021/09/23 05:49:13;;;;;;;66.57;47.05;;;11.50;99.90;;;;;;4175570;28;20044;-73
2021/09/23 05:51:14;;;;;;;69.80;45.03;;;11.50;99.90;;;;;;4180158;28;20166;-73
2021/09/23 05:53:15;;;;;;;58.22;43.30;;;11.50;99.90;;;;;;4177097;28;20499;-73
2021/09/23 05:55:16;;;;;;;66.43;45.13;;;11.40;99.90;;;;;;4179294;28;20025;-73
2021/09/23 05:57:23;;;;;;;72.15;45.75;;;11.40;99.90;;;;;;4178187;28;20041;-73
2021/09/23 05:59:24;;;;;;;65.15;45.63;;;11.40;99.90;;;;;;4180620;28;20033;-74
2021/09/23 06:01:25;;;;;;;67.82;46.67;;;11.40;99.90;;;;;;4180326;28;20037;-73
2021/09/23 06:03:25;;;;;;;69.90;46.92;;;11.40;99.90;;;;;;4179469;28;20358;-73
2021/09/23 06:05:26;;;;;;;67.28;44.42;;;11.30;99.90;;;;;;4177820;28;20041;-74
2021/09/23 06:07:27;;;;;;;64.53;42.25;;;11.50;99.90;;;;;;4178696;28;20545;-73
2021/09/23 06:09:27;;;;;;;67.25;43.97;;;11.50;99.90;;;;;;4182703;28;21866;-74
2021/09/23 06:11:28;;;;;;;65.78;41.22;;;11.50;99.90;;;;;;4177243;28;20036;-73
2021/09/23 06:13:29;;;;;;;67.70;45.40;;;11.70;99.90;;;;;;4182832;28;20548;-74
2021/09/23 06:15:29;;;;;;;75.70;46.88;;;11.70;99.90;;;;;;4178666;28;20064;-73
2021/09/23 06:17:30;;;;;;;73.68;47.08;;;11.70;99.90;;;;;;4175646;28;20097;-74
2021/09/23 06:19:31;;;;;;;64.55;44.80;;;11.70;99.90;;;;;;4175649;28;20040;-74
2021/09/23 06:21:31;;;;;;;68.93;47.80;;;11.80;99.90;;;;;;4179016;28;20044;-74
2021/09/23 06:23:32;;;;;;;75.57;47.40;;;11.80;99.90;;;;;;4174370;28;20388;-73
2021/09/23 06:25:33;;;;;;;68.15;47.13;;;11.80;99.90;;;;;;4176200;28;20428;-74
2021/09/23 06:27:33;;;;;;;70.68;46.10;;;11.90;99.90;;;;;;4175601;28;20029;-73
2021/09/23 06:29:34;;;;;;;62.13;43.92;;;12.00;99.90;;;;;;4168221;28;20072;-74
2021/09/23 06:31:35;;;;;;;69.72;47.00;;;12.10;99.90;;;;;;4155473;28;20037;-74
2021/09/23 06:33:36;;;;;;;68.57;48.35;;;12.20;99.90;;;;;;4157656;28;20026;-74
2021/09/23 06:35:36;;;;;;;70.55;45.30;;;12.30;99.90;;;;;;4160653;28;20057;-74
2021/09/23 06:37:38;;;;;;;66.07;48.60;;;12.30;99.90;;;;;;4173056;28;20122;-74
2021/09/23 06:39:40;;;;;;;61.63;45.08;;;12.40;99.90;;;;;;4178236;28;20086;-74
2021/09/23 06:41:40;;;;;;;60.03;44.00;;;12.40;99.90;;;;;;4176109;28;20044;-73
2021/09/23 06:43:41;;;;;;;63.58;47.10;;;12.50;99.90;;;;;;4212524;28;20482;-73
2021/09/23 06:45:42;;;;;;;64.50;44.63;;;12.60;99.90;;;;;;4173300;28;20041;-72
2021/09/23 06:47:42;;;;;;;64.47;45.22;;;12.60;99.90;;;;;;4179774;28;20387;-72
2021/09/23 06:49:43;;;;;;;59.35;44.53;;;12.60;99.90;;;;;;4176032;28;20476;-73
2021/09/23 06:51:44;;;;;;;64.78;47.83;;;12.60;99.90;;;;;;4175221;28;20389;-73
2021/09/23 06:53:45;;;;;;;62.42;46.58;;;12.60;99.90;;;;;;4175482;28;20045;-74
2021/09/23 06:55:46;;;;;;;65.38;45.70;;;12.70;99.90;;;;;;4173041;28;20037;-73
2021/09/23 06:57:46;;;;;;;64.93;46.50;;;12.80;99.90;;;;;;4177004;28;20099;-73
2021/09/23 06:59:47;;;;;;;67.03;49.80;;;12.70;99.90;;;;;;4175846;28;20025;-74
2021/09/23 07:01:48;;;;;;;67.95;42.75;;;12.80;99.90;;;;;;4179238;28;20056;-73
2021/09/23 07:03:49;;;;;;;69.72;48.47;;;12.90;99.90;;;;;;4174999;28;20424;-74
2021/09/23 07:05:50;;;;;;;59.78;45.75;;;13.00;99.90;;;;;;4176543;28;20021;-73
2021/09/23 07:07:50;;;;;;;63.55;46.65;;;13.10;99.90;;;;;;4160638;28;20045;-74
2021/09/23 07:09:51;;;;;;;59.47;45.25;;;13.20;99.90;;;;;;4169226;28;20047;-73
2021/09/23 07:11:52;;;;;;;61.45;45.30;;;13.30;99.90;;;;;;4168671;28;20040;-73
2021/09/23 07:13:52;;;;;;;64.13;45.17;;;13.50;99.90;;;;;;4169830;28;20040;-73
2021/09/23 07:15:53;;;;;;;55.83;43.25;;;13.70;99.90;;;;;;4167800;28;20447;-73
2021/09/23 07:17:53;;;;;;;60.28;44.05;;;13.80;99.90;;;;;;4167542;28;20405;-72
2021/09/23 07:19:54;;;;;;;62.35;44.65;;;14.00;99.90;;;;;;4167532;28;20036;-73
2021/09/23 07:21:56;;;;;;;53.90;40.42;;;14.20;99.90;;;;;;4168044;28;20040;-73
2021/09/23 07:23:58;;;;;;;56.55;41.47;;;14.30;99.90;;;;;;4169749;28;20365;-73
2021/09/23 07:25:59;;;;;;;56.78;43.17;;;14.50;99.90;;;;;;4169361;28;20041;-74
2021/09/23 07:28:01;;;;;;;57.42;42.78;;;14.60;99.90;;;;;;4169377;28;20033;-74
2021/09/23 07:30:03;;;;;;;68.88;45.42;;;14.70;99.90;;;;;;4170020;28;20439;-74
2021/09/23 07:32:04;;;;;;;62.83;43.90;;;14.70;99.90;;;;;;4162917;28;20033;-73
2021/09/23 07:34:05;;;;;;;55.78;42.63;;;14.80;99.90;;;;;;4161619;28;20124;-73
2021/09/23 07:36:05;;;;;;;60.95;44.38;;;14.80;99.90;;;;;;4165483;28;20060;-74
2021/09/23 07:38:06;;;;;;;63.42;46.42;;;14.80;99.90;;;;;;4167981;28;20068;-73
2021/09/23 07:40:09;;;;;;;60.33;43.88;;;14.70;99.90;;;;;;4169272;28;20473;-73
2021/09/23 07:42:09;;;;;;;55.95;42.47;;;14.60;99.90;;;;;;4169938;28;20086;-73
2021/09/23 07:44:12;;;;;;;57.85;40.25;;;14.70;99.90;;;;;;4169603;28;20580;-72
2021/09/23 07:46:13;;;;;;;53.47;39.38;;;14.80;99.90;;;;;;4167209;28;20613;-73
2021/09/23 07:48:13;;;;;;;53.17;42.22;;;15.10;99.90;;;;;;4168207;28;20064;-73
2021/09/23 07:50:14;;;;;;;55.45;43.03;;;15.20;99.90;;;;;;4167103;28;20037;-74
2021/09/23 07:52:15;;;;;;;57.10;41.47;;;15.30;99.90;;;;;;4168112;28;20094;-74
2021/09/23 07:54:16;;;;;;;55.63;41.05;;;15.30;99.90;;;;;;4168777;28;20033;-72
2021/09/23 07:56:17;;;;;;;58.03;38.58;;;15.30;99.90;;;;;;4166534;28;20041;-72
2021/09/23 07:58:17;;;;;;;55.22;40.80;;;15.30;99.90;;;;;;4171268;28;20048;-73
2021/09/23 08:00:18;;;;;;;52.53;42.42;;;15.30;99.90;;;;;;4171047;28;20037;-73
2021/09/23 08:02:19;;;;;;;54.53;40.42;;;15.40;99.90;;;;;;4170455;28;20037;-73
2021/09/23 08:04:20;;;;;;;56.38;39.03;;;15.50;99.90;;;;;;4168965;28;20393;-73
2021/09/23 08:06:21;;;;;;;53.45;40.67;;;15.60;99.90;;;;;;4168756;28;20037;-73
2021/09/23 08:08:22;;;;;;;52.38;40.72;;;15.70;99.90;;;;;;4169803;28;20172;-73
2021/09/23 08:10:23;;;;;;;46.50;35.95;;;15.70;99.90;;;;;;4171798;28;20036;-72
2021/09/23 08:12:23;;;;;;;49.08;38.58;;;15.80;99.90;;;;;;4184339;28;20030;-73
2021/09/23 08:14:25;;;;;;;46.42;36.95;;;15.80;99.90;;;;;;4171118;28;20057;-73
2021/09/23 08:16:26;;;;;;;48.95;37.60;;;15.80;99.90;;;;;;4172132;28;20047;-74
2021/09/23 08:18:26;;;;;;;48.33;35.10;;;15.90;99.90;;;;;;4159782;28;20033;-74
2021/09/23 08:20:27;;;;;;;44.10;35.00;;;16.00;99.90;;;;;;4158712;28;20029;-73
2021/09/23 08:22:28;;;;;;;43.78;33.50;;;16.10;99.90;;;;;;4159318;28;20118;-73
2021/09/23 08:24:28;;;;;;;43.95;34.47;;;16.10;99.90;;;;;;4178916;28;20040;-73
2021/09/23 08:26:29;;;;;;;45.88;36.08;;;16.20;99.90;;;;;;4176971;28;20028;-72
2021/09/23 08:28:32;;;;;;;42.72;32.70;;;16.30;99.90;;;;;;4177826;28;20040;-72
2021/09/23 08:30:32;;;;;;;42.47;31.35;;;16.30;99.90;;;;;;4173632;28;20029;-73
2021/09/23 08:32:33;;;;;;;44.45;32.13;;;16.40;99.90;;;;;;4178193;28;20108;-72
2021/09/23 08:34:34;;;;;;;41.00;30.35;;;16.50;99.90;;;;;;4175756;28;20508;-74
2021/09/23 08:36:34;;;;;;;40.53;30.35;;;16.60;99.90;;;;;;4177033;28;20036;-73
2021/09/23 08:38:35;;;;;;;38.90;29.83;;;16.70;99.90;;;;;;4175592;28;20044;-73
2021/09/23 08:40:35;;;;;;;48.20;30.88;;;16.80;99.90;;;;;;4176628;28;20476;-73
2021/09/23 08:42:38;;;;;;;34.70;28.65;;;16.90;99.90;;;;;;4175902;28;20036;-71
2021/09/23 08:44:40;;;;;;;34.17;27.30;;;17.10;99.90;;;;;;4178830;28;20020;-74
2021/09/23 08:46:42;;;;;;;33.05;26.30;;;17.40;99.90;;;;;;4177658;28;20043;-74
2021/09/23 08:48:43;;;;;;;31.02;22.42;;;17.60;99.90;;;;;;4178071;28;20029;-70
2021/09/23 08:50:44;;;;;;;34.97;24.58;;;17.80;99.90;;;;;;4179433;28;20036;-72
2021/09/23 08:52:45;;;;;;;34.35;24.02;;;17.80;99.90;;;;;;4178625;28;20033;-71
2021/09/23 08:54:45;;;;;;;37.00;24.23;;;17.70;99.90;;;;;;4175342;28;20795;-71
2021/09/23 08:56:46;;;;;;;32.33;22.95;;;17.60;99.90;;;;;;4176420;28;20037;-73
2021/09/23 08:58:47;;;;;;;29.90;21.42;;;17.60;99.90;;;;;;4175826;28;20029;-72
2021/09/23 09:01:17;;;;;;;28.90;21.70;;;17.70;99.90;;;;;;4177943;28;20029;-73
2021/09/23 09:03:18;;;;;;;27.77;22.05;;;17.80;99.90;;;;;;4166393;28;20040;-73
2021/09/23 09:05:19;;;;;;;28.75;23.05;;;17.80;99.90;;;;;;4165406;28;20094;-72
2021/09/23 09:07:31;;;;;;;31.27;23.48;;;17.90;99.90;;;;;;4174527;28;20470;-74
2021/09/23 09:09:32;;;;;;;31.80;23.15;;;18.00;99.90;;;;;;4175828;28;20488;-71
2021/09/23 09:11:34;;;;;;;26.15;22.40;;;18.20;99.90;;;;;;4176079;28;20119;-73
2021/09/23 09:13:44;;;;;;;30.80;23.65;;;18.30;99.90;;;;;;4174433;28;20056;-73
2021/09/23 09:15:45;;;;;;;30.83;23.80;;;18.50;99.90;;;;;;4174546;28;20033;-71
2021/09/23 09:17:45;;;;;;;30.60;24.20;;;18.60;99.90;;;;;;4179815;28;20049;-73
2021/09/23 09:19:51;;;;;;;30.70;21.58;;;18.50;99.90;;;;;;4168779;28;20086;-73
2021/09/23 09:22:11;;;;;;;28.67;23.63;;;18.50;99.90;;;;;;4173900;28;20041;-71
2021/09/23 09:24:16;;;;;;;28.75;23.13;;;18.50;99.90;;;;;;4165434;28;20525;-73
2021/09/23 09:26:28;;;;;;;33.42;24.75;;;18.60;99.90;;;;;;4170703;28;20044;-74
2021/09/23 09:28:28;;;;;;;29.15;24.48;;;18.50;99.90;;;;;;4178387;28;20389;-73
2021/09/23 09:30:33;;;;;;;30.35;23.48;;;18.30;99.90;;;;;;4176803;28;20028;-73
2021/09/23 09:32:38;;;;;;;30.58;22.33;;;18.10;99.90;;;;;;4177323;28;20048;-73
2021/09/23 09:34:54;;;;;;;30.92;23.20;;;18.00;99.90;;;;;;4175565;28;20025;-73
2021/09/23 09:36:59;;;;;;;29.67;22.92;;;18.10;99.90;;;;;;4177216;28;20056;-71
2021/09/23 09:39:16;;;;;;;30.00;23.30;;;18.10;99.90;;;;;;4174771;28;20473;-71
2021/09/23 09:41:22;;;;;;;25.60;22.48;;;18.20;99.90;;;;;;4158578;28;20029;-73
2021/09/23 09:43:23;;;;;;;33.88;23.25;;;18.20;99.90;;;;;;4156754;28;20021;-72
2021/09/23 09:45:26;;;;;;;25.70;21.77;;;18.00;99.90;;;;;;4156949;28;20037;-72
2021/09/23 09:47:33;;;;;;;29.80;22.30;;;18.10;99.90;;;;;;4159333;28;20636;-72
2021/09/23 09:49:34;;;;;;;27.02;21.15;;;18.30;99.90;;;;;;4153516;28;20116;-73
2021/09/23 09:51:46;;;;;;;31.10;21.50;;;18.60;99.90;;;;;;4172041;28;20510;-73
2021/09/23 09:53:59;;;;;;;24.65;20.58;;;18.80;99.90;;;;;;4174323;28;20029;-72
2021/09/23 09:55:59;;;;;;;23.00;19.30;;;19.00;99.90;;;;;;4176633;28;20033;-73
2021/09/23 09:58:01;;;;;;;20.23;17.83;;;19.10;99.90;;;;;;4176957;28;20040;-72
2021/09/23 10:00:02;;;;;;;21.23;15.30;;;19.10;99.90;;;;;;4174977;28;20093;-72
2021/09/23 10:02:03;;;;;;;20.60;15.82;;;19.30;99.90;;;;;;4175271;28;20041;-73
2021/09/23 10:04:04;;;;;;;22.83;15.45;;;19.50;99.90;;;;;;4175267;28;20554;-71
2021/09/23 10:06:05;;;;;;;19.42;13.30;;;19.50;99.90;;;;;;4172010;28;20507;-71
2021/09/23 10:08:08;;;;;;;17.23;11.10;;;19.40;99.90;;;;;;4177708;28;20032;-73
2021/09/23 10:10:10;;;;;;;17.17;12.75;;;19.30;99.90;;;;;;4181224;28;20056;-72
2021/09/23 10:12:11;;;;;;;17.75;11.63;;;19.10;99.90;;;;;;4174665;28;20041;-73
2021/09/23 10:14:14;;;;;;;18.50;11.77;;;19.00;99.90;;;;;;4181058;28;20124;-71
2021/09/23 10:16:15;;;;;;;18.83;12.73;;;18.80;99.90;;;;;;4176889;28;20036;-72
2021/09/23 10:18:17;;;;;;;16.25;11.20;;;18.80;99.90;;;;;;4178279;28;20028;-73